sensor_id;sensor_type;location;lat;lon;timestamp;pressure;altitude;pressure_sealevel;temperature;humidity
49341;BME280;35209;51.050;13.678;2023-04-08T00:01:34;100277.38;;;4.03;100.00
49341;BME280;35209;51.050;13.678;2023-04-08T00:06:35;100269.56;;;3.97;100.00
49341;BME280;35209;51.050;13.678;2023-04-08T00:11:38;100265.22;;;4.10;100.00
49341;BME280;35209;51.050;13.678;2023-04-08T00:16:40;100273.03;;;4.07;100.00
49341;BME280;35209;51.050;13.678;2023-04-08T00:21:42;100269.59;;;3.99;100.00
49341;BME280;35209;51.050;13.678;2023-04-08T00:26:43;100268.72;;;4.04;100.00
49341;BME280;35209;51.050;13.678;2023-04-08T00:31:45;100263.50;;;4.06;100.00
49341;BME280;35209;51.050;13.678;2023-04-08T00:36:47;100264.38;;;4.13;100.00
49341;BME280;35209;51.050;13.678;2023-04-08T00:41:49;100268.69;;;4.21;100.00
49341;BME280;35209;51.050;13.678;2023-04-08T00:46:50;100276.50;;;4.14;100.00
49341;BME280;35209;51.050;13.678;2023-04-08T00:51:53;100273.03;;;4.18;100.00
49341;BME280;35209;51.050;13.678;2023-04-08T00:56:56;100273.00;;;4.25;100.00
49341;BME280;35209;51.050;13.678;2023-04-08T01:07:14;100267.78;;;4.24;100.00
49341;BME280;35209;51.050;13.678;2023-04-08T01:12:21;100265.19;;;4.24;100.00
49341;BME280;35209;51.050;13.678;2023-04-08T01:17:30;100261.72;;;4.25;100.00
49341;BME280;35209;51.050;13.678;2023-04-08T01:27:57;100259.94;;;4.44;100.00
49341;BME280;35209;51.050;13.678;2023-04-08T01:33:00;100261.69;;;4.40;100.00
49341;BME280;35209;51.050;13.678;2023-04-08T01:38:06;100260.00;;;4.30;100.00
49341;BME280;35209;51.050;13.678;2023-04-08T01:43:12;100264.25;;;4.46;100.00
49341;BME280;35209;51.050;13.678;2023-04-08T01:48:15;100266.88;;;4.40;100.00
49341;BME280;35209;51.050;13.678;2023-04-08T01:53:17;100252.94;;;4.63;100.00
49341;BME280;35209;51.050;13.678;2023-04-08T01:58:20;100266.00;;;4.47;100.00
49341;BME280;35209;51.050;13.678;2023-04-08T02:03:23;100260.81;;;4.41;100.00
49341;BME280;35209;51.050;13.678;2023-04-08T02:08:26;100266.88;;;4.43;100.00
49341;BME280;35209;51.050;13.678;2023-04-08T02:13:30;100262.50;;;4.47;100.00
49341;BME280;35209;51.050;13.678;2023-04-08T02:18:33;100266.81;;;4.60;100.00
49341;BME280;35209;51.050;13.678;2023-04-08T02:23:38;100272.94;;;4.53;100.00
49341;BME280;35209;51.050;13.678;2023-04-08T02:28:41;100274.66;;;4.54;100.00
49341;BME280;35209;51.050;13.678;2023-04-08T02:33:43;100265.16;;;4.44;100.00
49341;BME280;35209;51.050;13.678;2023-04-08T02:38:49;100274.66;;;4.46;100.00
49341;BME280;35209;51.050;13.678;2023-04-08T02:43:51;100271.13;;;4.64;100.00
49341;BME280;35209;51.050;13.678;2023-04-08T02:48:55;100268.53;;;4.67;100.00
49341;BME280;35209;51.050;13.678;2023-04-08T02:53:57;100282.50;;;4.42;100.00
49341;BME280;35209;51.050;13.678;2023-04-08T02:58:59;100286.84;;;4.37;100.00
49341;BME280;35209;51.050;13.678;2023-04-08T03:04:01;100291.13;;;4.51;100.00
49341;BME280;35209;51.050;13.678;2023-04-08T03:09:03;100284.22;;;4.47;100.00
49341;BME280;35209;51.050;13.678;2023-04-08T03:14:06;100282.44;;;4.62;100.00
49341;BME280;35209;51.050;13.678;2023-04-08T03:19:08;100278.97;;;4.55;100.00
49341;BME280;35209;51.050;13.678;2023-04-08T03:24:09;100282.41;;;4.65;100.00
49341;BME280;35209;51.050;13.678;2023-04-08T03:29:11;100274.59;;;4.65;100.00
49341;BME280;35209;51.050;13.678;2023-04-08T03:34:13;100279.88;;;4.52;100.00
49341;BME280;35209;51.050;13.678;2023-04-08T03:39:15;100275.53;;;4.48;100.00
49341;BME280;35209;51.050;13.678;2023-04-08T03:44:17;100278.13;;;4.50;100.00
49341;BME280;35209;51.050;13.678;2023-04-08T03:49:18;100284.22;;;4.41;100.00
49341;BME280;35209;51.050;13.678;2023-04-08T03:54:20;100277.28;;;4.52;100.00
49341;BME280;35209;51.050;13.678;2023-04-08T03:59:22;100280.69;;;4.64;100.00
49341;BME280;35209;51.050;13.678;2023-04-08T04:04:24;100286.81;;;4.50;100.00
49341;BME280;35209;51.050;13.678;2023-04-08T04:09:25;100279.81;;;4.66;100.00
49341;BME280;35209;51.050;13.678;2023-04-08T04:14:27;100288.50;;;4.62;100.00
49341;BME280;35209;51.050;13.678;2023-04-08T04:19:30;100298.94;;;4.51;100.00
49341;BME280;35209;51.050;13.678;2023-04-08T04:24:32;100292.88;;;4.54;100.00
49341;BME280;35209;51.050;13.678;2023-04-08T04:29:33;100298.09;;;4.49;100.00
49341;BME280;35209;51.050;13.678;2023-04-08T04:34:35;100299.81;;;4.57;100.00
49341;BME280;35209;51.050;13.678;2023-04-08T04:39:37;100293.75;;;4.50;100.00
49341;BME280;35209;51.050;13.678;2023-04-08T04:44:38;100301.53;;;4.51;100.00
49341;BME280;35209;51.050;13.678;2023-04-08T04:49:40;100313.69;;;4.62;100.00
49341;BME280;35209;51.050;13.678;2023-04-08T04:54:42;100314.56;;;4.59;100.00
49341;BME280;35209;51.050;13.678;2023-04-08T04:59:47;100325.84;;;4.58;100.00
49341;BME280;35209;51.050;13.678;2023-04-08T05:04:50;100331.78;;;4.91;100.00
49341;BME280;35209;51.050;13.678;2023-04-08T05:09:54;100327.47;;;4.85;100.00
49341;BME280;35209;51.050;13.678;2023-04-08T05:14:59;100336.22;;;4.70;100.00
49341;BME280;35209;51.050;13.678;2023-04-08T05:20:01;100334.50;;;4.74;100.00
49341;BME280;35209;51.050;13.678;2023-04-08T05:25:04;100339.72;;;4.69;100.00
49341;BME280;35209;51.050;13.678;2023-04-08T05:30:07;100338.84;;;4.66;100.00
49341;BME280;35209;51.050;13.678;2023-04-08T05:35:12;100341.41;;;4.69;100.00
49341;BME280;35209;51.050;13.678;2023-04-08T05:40:15;100344.88;;;4.75;100.00
49341;BME280;35209;51.050;13.678;2023-04-08T05:45:17;100350.06;;;4.85;100.00
49341;BME280;35209;51.050;13.678;2023-04-08T05:50:19;100348.31;;;4.88;100.00
49341;BME280;35209;51.050;13.678;2023-04-08T05:55:21;100350.06;;;4.85;100.00
49341;BME280;35209;51.050;13.678;2023-04-08T06:00:23;100363.09;;;4.81;100.00
49341;BME280;35209;51.050;13.678;2023-04-08T06:05:25;100355.19;;;5.04;100.00
49341;BME280;35209;51.050;13.678;2023-04-08T06:10:27;100363.91;;;5.02;100.00
49341;BME280;35209;51.050;13.678;2023-04-08T06:15:29;100367.38;;;4.98;100.00
49341;BME280;35209;51.050;13.678;2023-04-08T06:20:34;100364.69;;;5.21;100.00
49341;BME280;35209;51.050;13.678;2023-04-08T06:25:37;100386.44;;;5.12;100.00
49341;BME280;35209;51.050;13.678;2023-04-08T06:30:39;100386.44;;;5.12;100.00
49341;BME280;35209;51.050;13.678;2023-04-08T06:35:40;100390.75;;;5.19;100.00
49341;BME280;35209;51.050;13.678;2023-04-08T06:40:42;100385.50;;;5.28;100.00
49341;BME280;35209;51.050;13.678;2023-04-08T06:45:44;100388.03;;;5.44;100.00
49341;BME280;35209;51.050;13.678;2023-04-08T06:50:46;100395.75;;;5.64;100.00
49341;BME280;35209;51.050;13.678;2023-04-08T06:55:48;100401.69;;;5.93;100.00
49341;BME280;35209;51.050;13.678;2023-04-08T07:00:49;100413.00;;;5.89;100.00
49341;BME280;35209;51.050;13.678;2023-04-08T07:05:52;100415.63;;;5.85;100.00
49341;BME280;35209;51.050;13.678;2023-04-08T07:10:53;100427.66;;;6.09;100.00
49341;BME280;35209;51.050;13.678;2023-04-08T07:15:55;100423.31;;;6.06;100.00
49341;BME280;35209;51.050;13.678;2023-04-08T07:20:57;100435.53;;;6.04;100.00
49341;BME280;35209;51.050;13.678;2023-04-08T07:26:02;100442.38;;;6.17;100.00
49341;BME280;35209;51.050;13.678;2023-04-08T07:31:15;100440.59;;;6.25;100.00
49341;BME280;35209;51.050;13.678;2023-04-08T07:36:17;100450.22;;;6.20;100.00
49341;BME280;35209;51.050;13.678;2023-04-08T07:41:19;100448.25;;;6.47;100.00
49341;BME280;35209;51.050;13.678;2023-04-08T07:46:21;100459.63;;;6.40;100.00
49341;BME280;35209;51.050;13.678;2023-04-08T07:51:23;100470.81;;;6.55;100.00
49341;BME280;35209;51.050;13.678;2023-04-08T07:56:25;100475.81;;;6.80;100.00
49341;BME280;35209;51.050;13.678;2023-04-08T08:01:26;100474.22;;;6.62;100.00
49341;BME280;35209;51.050;13.678;2023-04-08T08:06:31;100481.06;;;6.78;100.00
49341;BME280;35209;51.050;13.678;2023-04-08T08:11:33;100483.81;;;6.62;100.00
49341;BME280;35209;51.050;13.678;2023-04-08T08:16:35;100491.47;;;6.81;100.00
49341;BME280;35209;51.050;13.678;2023-04-08T08:21:39;100487.81;;;6.99;100.00
49341;BME280;35209;51.050;13.678;2023-04-08T08:26:41;100495.72;;;6.93;100.00
49341;BME280;35209;51.050;13.678;2023-04-08T08:31:43;100496.25;;;7.26;98.50
49341;BME280;35209;51.050;13.678;2023-04-08T08:36:44;100497.84;;;7.39;97.73
49341;BME280;35209;51.050;13.678;2023-04-08T08:41:46;100503.75;;;7.56;96.06
49341;BME280;35209;51.050;13.678;2023-04-08T08:46:48;100514.53;;;7.30;97.52
49341;BME280;35209;51.050;13.678;2023-04-08T08:51:51;100505.69;;;7.39;95.61
49341;BME280;35209;51.050;13.678;2023-04-08T08:56:54;100520.34;;;7.55;93.98
49341;BME280;35209;51.050;13.678;2023-04-08T09:01:56;100524.53;;;7.69;91.88
49341;BME280;35209;51.050;13.678;2023-04-08T09:07:08;100534.06;;;7.76;88.27
49341;BME280;35209;51.050;13.678;2023-04-08T09:12:11;100539.22;;;7.83;90.08
49341;BME280;35209;51.050;13.678;2023-04-08T09:17:14;100547.84;;;7.87;85.54
49341;BME280;35209;51.050;13.678;2023-04-08T09:22:17;100547.06;;;7.82;86.63
49341;BME280;35209;51.050;13.678;2023-04-08T09:27:35;100556.13;;;7.53;87.17
49341;BME280;35209;51.050;13.678;2023-04-08T09:32:47;100554.25;;;7.66;88.93
49341;BME280;35209;51.050;13.678;2023-04-08T09:37:50;100555.91;;;7.72;88.72
49341;BME280;35209;51.050;13.678;2023-04-08T09:42:53;100558.44;;;7.79;86.28
49341;BME280;35209;51.050;13.678;2023-04-08T09:48:09;100556.44;;;8.00;85.32
49341;BME280;35209;51.050;13.678;2023-04-08T09:53:21;100561.75;;;7.94;84.26
49341;BME280;35209;51.050;13.678;2023-04-08T09:58:53;100569.56;;;7.95;83.75
49341;BME280;35209;51.050;13.678;2023-04-08T10:03:59;100568.59;;;8.04;84.59
49341;BME280;35209;51.050;13.678;2023-04-08T10:09:02;100562.31;;;8.17;86.57
49341;BME280;35209;51.050;13.678;2023-04-08T10:14:04;100563.88;;;8.30;83.38
49341;BME280;35209;51.050;13.678;2023-04-08T10:19:35;100572.59;;;8.31;85.94
49341;BME280;35209;51.050;13.678;2023-04-08T10:24:37;100578.94;;;8.13;82.81
49341;BME280;35209;51.050;13.678;2023-04-08T10:29:39;100578.06;;;8.14;83.61
49341;BME280;35209;51.050;13.678;2023-04-08T10:34:50;100580.69;;;8.16;79.52
49341;BME280;35209;51.050;13.678;2023-04-08T10:39:53;100583.16;;;8.23;80.17
49341;BME280;35209;51.050;13.678;2023-04-08T10:44:59;100577.84;;;8.31;80.13
49341;BME280;35209;51.050;13.678;2023-04-08T10:50:11;100577.88;;;8.29;78.53
49341;BME280;35209;51.050;13.678;2023-04-08T10:55:13;100578.78;;;8.25;80.49
49341;BME280;35209;51.050;13.678;2023-04-08T11:00:31;100575.81;;;8.54;77.08
49341;BME280;35209;51.050;13.678;2023-04-08T11:05:33;100579.22;;;8.58;75.78
49341;BME280;35209;51.050;13.678;2023-04-08T11:10:37;100586.34;;;8.48;77.15
49341;BME280;35209;51.050;13.678;2023-04-08T11:15:41;100581.47;;;8.21;75.53
49341;BME280;35209;51.050;13.678;2023-04-08T11:20:43;100587.59;;;8.20;74.79
49341;BME280;35209;51.050;13.678;2023-04-08T11:25:46;100586.00;;;8.08;77.36
49341;BME280;35209;51.050;13.678;2023-04-08T11:30:48;100599.13;;;8.06;79.15
49341;BME280;35209;51.050;13.678;2023-04-08T11:35:50;100597.59;;;7.89;79.77
49341;BME280;35209;51.050;13.678;2023-04-08T11:40:56;100598.41;;;7.94;82.70
49341;BME280;35209;51.050;13.678;2023-04-08T11:46:10;100612.44;;;7.88;85.19
49341;BME280;35209;51.050;13.678;2023-04-08T11:51:13;100615.06;;;7.87;84.96
49341;BME280;35209;51.050;13.678;2023-04-08T11:56:19;100613.78;;;8.20;82.46
49341;BME280;35209;51.050;13.678;2023-04-08T12:01:21;100609.41;;;8.19;83.26
49341;BME280;35209;51.050;13.678;2023-04-08T12:06:23;100609.34;;;8.25;81.74
49341;BME280;35209;51.050;13.678;2023-04-08T12:11:25;100606.53;;;8.43;80.77
49341;BME280;35209;51.050;13.678;2023-04-08T12:16:27;100618.59;;;8.53;81.86
49341;BME280;35209;51.050;13.678;2023-04-08T12:21:30;100618.81;;;8.38;81.16
49341;BME280;35209;51.050;13.678;2023-04-08T12:26:34;100616.09;;;8.46;81.45
49341;BME280;35209;51.050;13.678;2023-04-08T12:31:36;100631.56;;;7.92;84.62
49341;BME280;35209;51.050;13.678;2023-04-08T12:36:37;100635.72;;;8.11;85.95
49341;BME280;35209;51.050;13.678;2023-04-08T12:41:42;100627.19;;;7.92;88.06
49341;BME280;35209;51.050;13.678;2023-04-08T12:46:44;100631.78;;;7.73;89.97
49341;BME280;35209;51.050;13.678;2023-04-08T12:51:45;100639.50;;;7.86;87.92
49341;BME280;35209;51.050;13.678;2023-04-08T12:56:47;100640.34;;;7.88;87.53
49341;BME280;35209;51.050;13.678;2023-04-08T13:01:49;100643.97;;;7.76;89.41
49341;BME280;35209;51.050;13.678;2023-04-08T13:06:51;100652.81;;;7.64;88.76
49341;BME280;35209;51.050;13.678;2023-04-08T13:11:53;100652.97;;;7.49;89.34
49341;BME280;35209;51.050;13.678;2023-04-08T13:16:55;100654.81;;;7.36;89.98
49341;BME280;35209;51.050;13.678;2023-04-08T13:21:58;100655.44;;;7.61;88.88
49341;BME280;35209;51.050;13.678;2023-04-08T13:27:00;100653.75;;;7.55;88.47
49341;BME280;35209;51.050;13.678;2023-04-08T13:32:03;100657.00;;;7.80;87.72
49341;BME280;35209;51.050;13.678;2023-04-08T13:37:06;100665.66;;;7.89;86.77
49341;BME280;35209;51.050;13.678;2023-04-08T13:42:08;100666.38;;;8.01;85.23
49341;BME280;35209;51.050;13.678;2023-04-08T13:47:10;100664.69;;;7.97;84.77
49341;BME280;35209;51.050;13.678;2023-04-08T13:52:12;100667.03;;;8.20;84.37
49341;BME280;35209;51.050;13.678;2023-04-08T13:57:14;100658.28;;;8.21;83.68
49341;BME280;35209;51.050;13.678;2023-04-08T14:02:17;100664.25;;;8.34;82.12
49341;BME280;35209;51.050;13.678;2023-04-08T14:07:18;100662.44;;;8.36;81.69
49341;BME280;35209;51.050;13.678;2023-04-08T14:12:20;100667.78;;;8.30;79.65
49341;BME280;35209;51.050;13.678;2023-04-08T14:17:22;100675.28;;;7.85;81.20
49341;BME280;35209;51.050;13.678;2023-04-08T14:22:24;100677.13;;;7.74;80.90
49341;BME280;35209;51.050;13.678;2023-04-08T14:27:25;100673.88;;;7.47;82.24
49341;BME280;35209;51.050;13.678;2023-04-08T14:32:28;100682.69;;;7.40;82.69
49341;BME280;35209;51.050;13.678;2023-04-08T14:37:30;100684.34;;;7.47;82.02
49341;BME280;35209;51.050;13.678;2023-04-08T14:42:31;100682.41;;;7.69;81.94
49341;BME280;35209;51.050;13.678;2023-04-08T14:47:33;100682.38;;;7.75;81.83
49341;BME280;35209;51.050;13.678;2023-04-08T14:52:35;100688.53;;;7.65;81.41
49341;BME280;35209;51.050;13.678;2023-04-08T14:57:37;100695.88;;;7.26;82.51
49341;BME280;35209;51.050;13.678;2023-04-08T15:02:38;100686.22;;;7.33;82.78
49341;BME280;35209;51.050;13.678;2023-04-08T15:07:41;100689.78;;;7.23;81.01
49341;BME280;35209;51.050;13.678;2023-04-08T15:12:43;100686.28;;;7.24;80.76
49341;BME280;35209;51.050;13.678;2023-04-08T15:17:45;100696.72;;;7.28;80.97
49341;BME280;35209;51.050;13.678;2023-04-08T15:22:47;100694.13;;;7.24;80.63
49341;BME280;35209;51.050;13.678;2023-04-08T15:27:48;100697.59;;;7.26;79.57
49341;BME280;35209;51.050;13.678;2023-04-08T15:32:51;100707.38;;;7.04;79.68
49341;BME280;35209;51.050;13.678;2023-04-08T15:37:53;100705.56;;;7.14;80.37
49341;BME280;35209;51.050;13.678;2023-04-08T15:42:55;100717.72;;;7.16;78.57
49341;BME280;35209;51.050;13.678;2023-04-08T15:47:57;100717.72;;;7.18;79.82
49341;BME280;35209;51.050;13.678;2023-04-08T15:53:00;100716.78;;;7.28;79.65
49341;BME280;35209;51.050;13.678;2023-04-08T15:58:01;100717.59;;;7.33;78.44
49341;BME280;35209;51.050;13.678;2023-04-08T16:03:03;100725.56;;;7.19;78.45
49341;BME280;35209;51.050;13.678;2023-04-08T16:08:06;100733.44;;;7.15;75.57
49341;BME280;35209;51.050;13.678;2023-04-08T16:13:08;100735.22;;;7.10;77.15
49341;BME280;35209;51.050;13.678;2023-04-08T16:18:10;100750.84;;;7.13;76.95
49341;BME280;35209;51.050;13.678;2023-04-08T16:23:12;100755.28;;;7.03;77.52
49341;BME280;35209;51.050;13.678;2023-04-08T16:28:16;100760.44;;;7.12;77.85
49341;BME280;35209;51.050;13.678;2023-04-08T16:33:18;100759.75;;;6.84;79.03
49341;BME280;35209;51.050;13.678;2023-04-08T16:38:24;100764.06;;;6.93;78.76
49341;BME280;35209;51.050;13.678;2023-04-08T16:43:27;100764.88;;;6.99;79.07
49341;BME280;35209;51.050;13.678;2023-04-08T16:48:29;100775.53;;;6.64;80.77
49341;BME280;35209;51.050;13.678;2023-04-08T16:53:31;100767.66;;;6.70;81.35
49341;BME280;35209;51.050;13.678;2023-04-08T16:58:33;100772.88;;;6.69;81.37
49341;BME280;35209;51.050;13.678;2023-04-08T17:03:35;100773.75;;;6.71;81.77
49341;BME280;35209;51.050;13.678;2023-04-08T17:08:37;100784.19;;;6.68;81.89
49341;BME280;35209;51.050;13.678;2023-04-08T17:13:41;100780.75;;;6.61;81.83
49341;BME280;35209;51.050;13.678;2023-04-08T17:18:43;100790.34;;;6.53;82.77
49341;BME280;35209;51.050;13.678;2023-04-08T17:23:46;100794.69;;;6.55;83.86
49341;BME280;35209;51.050;13.678;2023-04-08T17:28:48;100800.72;;;6.68;83.35
49341;BME280;35209;51.050;13.678;2023-04-08T17:33:50;100804.25;;;6.66;82.92
49341;BME280;35209;51.050;13.678;2023-04-08T17:38:52;100807.75;;;6.54;82.92
49341;BME280;35209;51.050;13.678;2023-04-08T17:43:54;100812.16;;;6.40;83.55
49341;BME280;35209;51.050;13.678;2023-04-08T17:48:56;100815.63;;;6.40;82.84
49341;BME280;35209;51.050;13.678;2023-04-08T17:53:58;100821.75;;;6.21;84.01
49341;BME280;35209;51.050;13.678;2023-04-08T17:59:00;100831.31;;;6.22;84.62
49341;BME280;35209;51.050;13.678;2023-04-08T18:04:03;100832.22;;;6.16;85.81
49341;BME280;35209;51.050;13.678;2023-04-08T18:09:07;100838.28;;;6.18;86.40
49341;BME280;35209;51.050;13.678;2023-04-08T18:14:09;100854.84;;;6.11;86.34
49341;BME280;35209;51.050;13.678;2023-04-08T18:19:11;100853.09;;;6.09;86.98
49341;BME280;35209;51.050;13.678;2023-04-08T18:24:13;100854.81;;;6.10;86.98
49341;BME280;35209;51.050;13.678;2023-04-08T18:29:16;100860.91;;;6.18;86.00
49341;BME280;35209;51.050;13.678;2023-04-08T18:34:18;100864.41;;;6.17;85.98
49341;BME280;35209;51.050;13.678;2023-04-08T18:39:21;100878.31;;;6.03;86.66
49341;BME280;35209;51.050;13.678;2023-04-08T18:44:23;100875.69;;;5.93;86.73
49341;BME280;35209;51.050;13.678;2023-04-08T18:49:25;100886.09;;;5.82;88.14
49341;BME280;35209;51.050;13.678;2023-04-08T18:54:26;100892.25;;;6.09;86.85
49341;BME280;35209;51.050;13.678;2023-04-08T18:59:28;100898.28;;;5.88;87.39
49341;BME280;35209;51.050;13.678;2023-04-08T19:04:30;100893.97;;;5.94;87.20
49341;BME280;35209;51.050;13.678;2023-04-08T19:09:33;100903.50;;;5.83;87.77
49341;BME280;35209;51.050;13.678;2023-04-08T19:14:35;100906.97;;;5.73;88.67
49341;BME280;35209;51.050;13.678;2023-04-08T19:19:37;100903.50;;;5.77;88.35
49341;BME280;35209;51.050;13.678;2023-04-08T19:24:39;100909.53;;;5.62;89.00
49341;BME280;35209;51.050;13.678;2023-04-08T19:29:41;100893.03;;;5.74;88.38
49341;BME280;35209;51.050;13.678;2023-04-08T19:34:43;100902.59;;;5.67;88.27
49341;BME280;35209;51.050;13.678;2023-04-08T19:39:44;100903.44;;;5.49;89.31
49341;BME280;35209;51.050;13.678;2023-04-08T19:44:46;100896.34;;;5.18;90.70
49341;BME280;35209;51.050;13.678;2023-04-08T19:49:49;100896.34;;;5.12;91.89
49341;BME280;35209;51.050;13.678;2023-04-08T19:54:51;100895.44;;;5.06;91.95
49341;BME280;35209;51.050;13.678;2023-04-08T19:59:53;100905.88;;;5.05;92.86
49341;BME280;35209;51.050;13.678;2023-04-08T20:04:55;100909.44;;;5.22;92.59
49341;BME280;35209;51.050;13.678;2023-04-08T20:09:57;100916.94;;;4.66;95.14
49341;BME280;35209;51.050;13.678;2023-04-08T20:14:59;100911.69;;;4.63;96.55
49341;BME280;35209;51.050;13.678;2023-04-08T20:20:02;100912.44;;;4.46;97.30
49341;BME280;35209;51.050;13.678;2023-04-08T20:25:05;100912.44;;;4.46;97.42
49341;BME280;35209;51.050;13.678;2023-04-08T20:30:08;100915.06;;;4.43;97.48
49341;BME280;35209;51.050;13.678;2023-04-08T20:35:10;100912.34;;;4.29;97.63
49341;BME280;35209;51.050;13.678;2023-04-08T20:40:12;100898.25;;;4.06;98.77
49341;BME280;35209;51.050;13.678;2023-04-08T20:45:14;100905.03;;;3.89;99.02
49341;BME280;35209;51.050;13.678;2023-04-08T20:50:16;100910.94;;;3.71;100.00
49341;BME280;35209;51.050;13.678;2023-04-08T20:55:18;100910.28;;;3.93;99.30
49341;BME280;35209;51.050;13.678;2023-04-08T21:00:20;100915.94;;;3.52;100.00
49341;BME280;35209;51.050;13.678;2023-04-08T21:05:22;100906.47;;;3.56;100.00
49341;BME280;35209;51.050;13.678;2023-04-08T21:10:23;100909.25;;;3.76;100.00
49341;BME280;35209;51.050;13.678;2023-04-08T21:15:26;100908.94;;;3.45;100.00
49341;BME280;35209;51.050;13.678;2023-04-08T21:20:27;100920.63;;;3.08;100.00
49341;BME280;35209;51.050;13.678;2023-04-08T21:25:30;100935.66;;;3.34;100.00
49341;BME280;35209;51.050;13.678;2023-04-08T21:30:31;100940.28;;;2.91;100.00
49341;BME280;35209;51.050;13.678;2023-04-08T21:35:33;100930.13;;;3.06;100.00
49341;BME280;35209;51.050;13.678;2023-04-08T21:40:35;100925.22;;;3.29;100.00
49341;BME280;35209;51.050;13.678;2023-04-08T21:45:36;100938.88;;;3.14;100.00
49341;BME280;35209;51.050;13.678;2023-04-08T21:50:38;100948.31;;;3.06;100.00
49341;BME280;35209;51.050;13.678;2023-04-08T21:55:42;100940.97;;;2.77;100.00
49341;BME280;35209;51.050;13.678;2023-04-08T22:00:43;100942.31;;;2.51;100.00
49341;BME280;35209;51.050;13.678;2023-04-08T22:05:45;100927.00;;;2.69;100.00
49341;BME280;35209;51.050;13.678;2023-04-08T22:10:47;100935.72;;;2.73;100.00
49341;BME280;35209;51.050;13.678;2023-04-08T22:15:49;100924.41;;;2.69;100.00
49341;BME280;35209;51.050;13.678;2023-04-08T22:20:51;100923.50;;;2.66;100.00
49341;BME280;35209;51.050;13.678;2023-04-08T22:25:52;100925.88;;;2.52;100.00
49341;BME280;35209;51.050;13.678;2023-04-08T22:30:54;100925.50;;;2.27;100.00
49341;BME280;35209;51.050;13.678;2023-04-08T22:35:56;100919.34;;;2.21;100.00
49341;BME280;35209;51.050;13.678;2023-04-08T22:40:58;100915.88;;;2.20;100.00
49341;BME280;35209;51.050;13.678;2023-04-08T22:46:00;100910.00;;;2.32;100.00
49341;BME280;35209;51.050;13.678;2023-04-08T22:51:02;100905.19;;;2.02;100.00
49341;BME280;35209;51.050;13.678;2023-04-08T22:56:03;100903.97;;;2.32;100.00
49341;BME280;35209;51.050;13.678;2023-04-08T23:01:15;100910.13;;;2.40;100.00
49341;BME280;35209;51.050;13.678;2023-04-08T23:06:17;100913.19;;;2.14;100.00
49341;BME280;35209;51.050;13.678;2023-04-08T23:11:19;100915.34;;;1.90;100.00
49341;BME280;35209;51.050;13.678;2023-04-08T23:16:21;100911.59;;;2.24;100.00
49341;BME280;35209;51.050;13.678;2023-04-08T23:21:23;100919.22;;;2.13;100.00
49341;BME280;35209;51.050;13.678;2023-04-08T23:26:24;100929.53;;;1.60;100.00
49341;BME280;35209;51.050;13.678;2023-04-08T23:31:26;100928.56;;;1.55;100.00
49341;BME280;35209;51.050;13.678;2023-04-08T23:36:28;100926.84;;;1.57;100.00
49341;BME280;35209;51.050;13.678;2023-04-08T23:41:30;100930.75;;;1.81;100.00
49341;BME280;35209;51.050;13.678;2023-04-08T23:46:31;100935.00;;;1.77;100.00
49341;BME280;35209;51.050;13.678;2023-04-08T23:51:35;100925.34;;;1.68;100.00
49341;BME280;35209;51.050;13.678;2023-04-08T23:56:39;100928.50;;;1.54;100.00
